KCDW/CDW METAR and TAF weather

Enter ICAO airport designator
Station Type Date Time Source
KCDW METAR 2018/01/23 00:53 UTC NOAA

KCDW 230053Z AUTO 08008KT 4SM BR OVC007 04/04 A3013 RMK AO2 SLP209 T00440039 TSNO


Station Type Date Time Source
KCDW Decoded METAR 2018/01/23 00:53 UTC NOAA

CALDWELL ESSEX COUNTY AIRPORT , NJ, United States (KCDW) 40-53N 074-17W 64M
Jan 22, 2018 - 07:53 PM EST / 2018.01.23 0053 UTC
Wind: from the E (080 degrees) at 9 MPH (8 KT):0
Visibility: 4 mile(s):0
Sky conditions: overcast
Weather: mist
Temperature: 39.9 F (4.4 C)
Dew Point: 39.0 F (3.9 C)
Relative Humidity: 96%
Pressure (altimeter): 30.13 in. Hg (1020 hPa)
ob: KCDW 230053Z AUTO 08008KT 4SM BR OVC007 04/04 A3013 RMK AO2 SLP209 T00440039 TSNO
cycle: 1

Station Type Date Time Source
KCDW TAF UTC NOAA

Error!


Example: see airport list